createdAt,value
2023-02-13T00:00:53.638Z,98.70
2023-02-13T00:01:53.625Z,98.80
2023-02-13T00:02:53.631Z,98.70
2023-02-13T00:03:53.722Z,98.70
2023-02-13T00:04:53.589Z,98.70
2023-02-13T00:05:53.584Z,98.96
2023-02-13T00:06:53.566Z,98.96
2023-02-13T00:07:53.600Z,99.11
2023-02-13T00:08:53.546Z,99.16
2023-02-13T00:09:53.560Z,99.06
2023-02-13T00:10:53.522Z,99.26
2023-02-13T00:11:53.509Z,99.26
2023-02-13T00:12:53.527Z,99.01
2023-02-13T00:13:53.488Z,98.80
2023-02-13T00:14:53.479Z,98.70
2023-02-13T00:15:53.510Z,98.75
2023-02-13T00:16:53.457Z,99.11
2023-02-13T00:17:53.464Z,98.70
2023-02-13T00:18:53.430Z,99.57
2023-02-13T00:19:53.419Z,99.32
2023-02-13T00:20:53.435Z,99.22
2023-02-13T00:21:53.393Z,99.47
2023-02-13T00:22:53.394Z,99.43
2023-02-13T00:23:53.398Z,99.22
2023-02-13T00:24:53.367Z,99.22
2023-02-13T00:25:53.403Z,99.26
2023-02-13T00:26:53.351Z,99.43
2023-02-13T00:27:53.352Z,99.37
2023-02-13T00:28:53.329Z,99.16
2023-02-13T00:29:53.333Z,99.26
2023-02-13T00:30:53.374Z,99.37
2023-02-13T00:31:53.439Z,99.16
2023-02-13T00:32:53.268Z,99.26
2023-02-13T00:33:53.260Z,99.26
2023-02-13T00:34:53.253Z,99.26
2023-02-13T00:35:53.231Z,99.26
2023-02-13T00:36:53.239Z,99.57
2023-02-13T00:37:53.216Z,99.68
2023-02-13T00:38:53.205Z,99.68
2023-02-13T00:39:53.222Z,99.47
2023-02-13T00:40:53.193Z,99.63
2023-02-13T00:41:53.182Z,99.68
2023-02-13T00:42:53.157Z,99.78
2023-02-13T00:43:53.163Z,99.68
2023-02-13T00:44:53.129Z,99.37
2023-02-13T00:45:53.139Z,99.47
2023-02-13T00:46:53.108Z,99.52
2023-02-13T00:47:53.100Z,99.99
2023-02-13T00:48:53.093Z,99.68
2023-02-13T00:49:53.072Z,99.99
2023-02-13T00:50:53.073Z,99.99
2023-02-13T00:51:53.080Z,99.99
2023-02-13T00:52:53.045Z,99.99
2023-02-13T00:53:53.048Z,99.99
2023-02-13T00:54:53.028Z,99.99
2023-02-13T00:55:53.001Z,99.99
2023-02-13T00:56:53.009Z,99.99
2023-02-13T00:57:53.009Z,99.99
2023-02-13T00:58:53.016Z,99.99
2023-02-13T00:59:52.968Z,99.99
2023-02-13T01:00:52.944Z,99.99
2023-02-13T01:01:53.019Z,99.99
2023-02-13T01:02:52.948Z,99.99
2023-02-13T01:03:52.999Z,99.99
2023-02-13T01:04:52.925Z,99.99
2023-02-13T01:05:52.894Z,99.99
2023-02-13T01:06:52.887Z,99.99
2023-02-13T01:07:52.876Z,99.99
2023-02-13T01:08:52.887Z,99.99
2023-02-13T01:09:52.845Z,99.88
2023-02-13T01:10:52.835Z,99.88
2023-02-13T01:11:52.875Z,99.88
2023-02-13T01:12:52.820Z,99.99
2023-02-13T01:13:52.837Z,99.99
2023-02-13T01:14:52.820Z,99.99
2023-02-13T01:15:52.811Z,99.99
2023-02-13T01:16:52.774Z,99.99
2023-02-13T01:17:52.757Z,99.99
2023-02-13T01:18:52.751Z,99.99
2023-02-13T01:19:52.757Z,99.99
2023-02-13T01:20:52.729Z,99.99
2023-02-13T01:21:52.740Z,99.99
2023-02-13T01:22:52.707Z,99.99
2023-02-13T01:23:52.693Z,99.99
2023-02-13T01:24:52.696Z,99.99
2023-02-13T01:25:52.671Z,99.99
2023-02-13T01:26:52.697Z,99.99
2023-02-13T01:27:52.651Z,99.99
2023-02-13T01:28:52.646Z,99.99
2023-02-13T01:29:52.649Z,99.99
2023-02-13T01:30:52.685Z,99.99
2023-02-13T01:31:52.760Z,99.99
2023-02-13T01:32:52.594Z,99.99
2023-02-13T01:33:52.581Z,99.99
2023-02-13T01:34:52.573Z,99.99
2023-02-13T01:35:52.568Z,99.99
2023-02-13T01:36:52.569Z,99.99
2023-02-13T01:37:52.536Z,99.99
2023-02-13T01:38:52.530Z,99.99
2023-02-13T01:39:52.513Z,99.99
2023-02-13T01:40:52.517Z,99.99
2023-02-13T01:41:52.507Z,99.99
2023-02-13T01:42:52.479Z,99.99
2023-02-13T01:43:52.474Z,99.99
2023-02-13T01:44:52.457Z,99.99
2023-02-13T01:45:52.474Z,99.99
2023-02-13T01:46:52.543Z,99.99
2023-02-13T01:47:52.424Z,99.99
2023-02-13T01:48:52.407Z,99.99
2023-02-13T01:49:52.437Z,99.99
2023-02-13T01:50:52.544Z,99.99
2023-02-13T01:51:52.380Z,99.99
2023-02-13T01:52:52.380Z,99.99
2023-02-13T01:53:52.359Z,99.99
2023-02-13T01:54:52.339Z,99.99
2023-02-13T01:55:52.350Z,99.99
2023-02-13T01:56:52.323Z,99.99
2023-02-13T01:57:52.309Z,99.99
2023-02-13T01:58:52.295Z,99.99
2023-02-13T01:59:52.310Z,99.99
2023-02-13T02:00:52.278Z,99.99
2023-02-13T02:01:52.429Z,99.99
2023-02-13T02:02:52.357Z,99.99
2023-02-13T02:03:52.267Z,99.99
2023-02-13T02:04:52.236Z,99.99
2023-02-13T02:05:52.216Z,99.99
2023-02-13T02:06:52.202Z,99.99
2023-02-13T02:07:52.190Z,99.99
2023-02-13T02:08:52.215Z,99.99
2023-02-13T02:09:52.189Z,99.99
2023-02-13T02:10:52.176Z,99.99
2023-02-13T02:11:52.158Z,99.99
2023-02-13T02:12:52.155Z,99.99
2023-02-13T02:13:52.127Z,99.99
2023-02-13T02:14:52.118Z,99.99
2023-02-13T02:15:52.138Z,99.99
2023-02-13T02:16:52.110Z,99.99
2023-02-13T02:17:52.104Z,99.99
2023-02-13T02:18:52.078Z,99.99
2023-02-13T02:19:52.056Z,99.99
2023-02-13T02:20:52.054Z,99.99
2023-02-13T02:21:52.060Z,99.99
2023-02-13T02:22:52.057Z,99.99
2023-02-13T02:23:52.035Z,99.99
2023-02-13T02:24:52.003Z,99.99
2023-02-13T02:25:51.997Z,99.99
2023-02-13T02:26:51.987Z,99.99
2023-02-13T02:27:51.996Z,99.99
2023-02-13T02:28:51.965Z,99.99
2023-02-13T02:29:51.970Z,99.99
2023-02-13T02:30:52.110Z,99.99
2023-02-13T02:31:51.949Z,99.99
2023-02-13T02:32:51.933Z,99.99
2023-02-13T02:33:51.942Z,99.99
2023-02-13T02:34:51.919Z,99.99
2023-02-13T02:35:51.882Z,99.99
2023-02-13T02:36:51.881Z,99.99
2023-02-13T02:37:51.861Z,99.99
2023-02-13T02:38:51.859Z,99.99
2023-02-13T02:39:51.883Z,99.99
2023-02-13T02:40:51.825Z,99.99
2023-02-13T02:41:51.818Z,99.99
2023-02-13T02:42:51.807Z,99.99
2023-02-13T02:43:51.810Z,99.99
2023-02-13T02:44:51.802Z,99.99
2023-02-13T02:45:51.774Z,99.99
2023-02-13T02:46:51.804Z,99.99
2023-02-13T02:47:51.750Z,99.99
2023-02-13T02:48:51.747Z,99.99
2023-02-13T02:49:51.758Z,99.99
2023-02-13T02:50:51.709Z,99.99
2023-02-13T02:51:51.737Z,99.99
2023-02-13T02:52:51.716Z,99.99
2023-02-13T02:53:51.677Z,99.99
2023-02-13T02:54:51.664Z,99.99
2023-02-13T02:55:51.658Z,99.99
2023-02-13T02:56:51.638Z,99.99
2023-02-13T02:57:51.650Z,99.99
2023-02-13T02:58:51.621Z,99.99
2023-02-13T02:59:51.606Z,99.99
2023-02-13T03:00:51.633Z,99.99
2023-02-13T03:01:51.582Z,99.99
2023-02-13T03:02:51.588Z,99.99
2023-02-13T03:03:51.586Z,99.99
2023-02-13T03:04:51.594Z,99.99
2023-02-13T03:05:51.569Z,99.99
2023-02-13T03:06:51.532Z,99.99
2023-02-13T03:07:51.539Z,99.99
2023-02-13T03:08:51.502Z,99.99
2023-02-13T03:09:51.504Z,99.99
2023-02-13T03:10:51.479Z,99.99
2023-02-13T03:11:51.476Z,99.99
2023-02-13T03:12:51.477Z,99.99
2023-02-13T03:13:51.443Z,99.99
2023-02-13T03:14:51.438Z,99.99
2023-02-13T03:15:51.451Z,99.99
2023-02-13T03:16:51.422Z,99.99
2023-02-13T03:17:51.423Z,99.99
2023-02-13T03:18:51.393Z,99.99
2023-02-13T03:19:51.377Z,99.99
2023-02-13T03:20:51.381Z,99.99
2023-02-13T03:21:51.393Z,99.99
2023-02-13T03:22:51.344Z,99.99
2023-02-13T03:23:51.340Z,99.99
2023-02-13T03:24:51.319Z,99.99
2023-02-13T03:25:51.330Z,99.99
2023-02-13T03:26:51.311Z,99.99
2023-02-13T03:27:51.293Z,99.99
2023-02-13T03:28:51.295Z,99.99
2023-02-13T03:29:51.263Z,99.99
2023-02-13T03:30:51.340Z,99.99
2023-02-13T03:31:51.310Z,99.99
2023-02-13T03:32:51.233Z,99.99
2023-02-13T03:33:51.220Z,99.99
2023-02-13T03:34:51.210Z,99.99
2023-02-13T03:35:51.226Z,99.99
2023-02-13T03:36:51.185Z,99.99
2023-02-13T03:37:51.194Z,99.99
2023-02-13T03:38:51.161Z,99.99
2023-02-13T03:39:51.161Z,99.99
2023-02-13T03:40:51.169Z,99.99
2023-02-13T03:41:51.205Z,99.99
2023-02-13T03:42:51.135Z,99.99
2023-02-13T03:43:51.112Z,99.99
2023-02-13T03:44:51.090Z,99.99
2023-02-13T03:45:51.103Z,99.99
2023-02-13T03:46:51.071Z,99.99
2023-02-13T03:47:51.074Z,99.99
2023-02-13T03:48:51.071Z,99.99
2023-02-13T03:49:51.050Z,99.99
2023-02-13T03:50:51.035Z,99.99
2023-02-13T03:51:51.020Z,99.99
2023-02-13T03:52:51.008Z,99.99
2023-02-13T03:53:51.034Z,99.99
2023-02-13T03:54:50.981Z,99.99
2023-02-13T03:55:50.971Z,99.99
2023-02-13T03:56:50.970Z,99.99
2023-02-13T03:57:50.953Z,99.99
2023-02-13T03:58:50.960Z,99.99
2023-02-13T03:59:50.934Z,99.99
2023-02-13T04:00:50.934Z,99.99
2023-02-13T04:01:50.938Z,99.99
2023-02-13T04:02:50.889Z,99.99
2023-02-13T04:03:50.916Z,99.99
2023-02-13T04:04:50.877Z,99.99
2023-02-13T04:05:50.856Z,99.99
2023-02-13T04:06:50.857Z,99.99
2023-02-13T04:07:50.834Z,99.99
2023-02-13T04:08:50.844Z,99.99
2023-02-13T04:09:50.857Z,99.99
2023-02-13T04:10:50.845Z,99.99
2023-02-13T04:11:50.804Z,99.99
2023-02-13T04:12:50.803Z,99.99
2023-02-13T04:13:50.772Z,99.99
2023-02-13T04:14:50.752Z,99.99
2023-02-13T04:15:50.742Z,99.99
2023-02-13T04:16:50.774Z,99.99
2023-02-13T04:17:50.739Z,99.99
2023-02-13T04:18:50.708Z,99.99
2023-02-13T04:19:50.707Z,99.99
2023-02-13T04:20:50.686Z,99.99
2023-02-13T04:21:50.699Z,99.99
2023-02-13T04:22:50.667Z,99.99
2023-02-13T04:23:50.693Z,99.99
2023-02-13T04:24:50.655Z,99.99
2023-02-13T04:25:50.651Z,99.99
2023-02-13T04:26:50.651Z,99.99
2023-02-13T04:27:50.606Z,99.99
2023-02-13T04:28:50.598Z,99.99
2023-02-13T04:29:50.611Z,99.99
2023-02-13T04:30:50.704Z,99.99
2023-02-13T04:31:50.712Z,99.99
2023-02-13T04:32:50.566Z,99.99
2023-02-13T04:33:50.543Z,99.99
2023-02-13T04:34:50.544Z,99.99
2023-02-13T04:35:50.537Z,99.99
2023-02-13T04:36:50.512Z,99.99
2023-02-13T04:37:50.496Z,99.99
2023-02-13T04:38:50.483Z,99.99
2023-02-13T04:39:50.509Z,99.99
2023-02-13T04:40:50.480Z,99.99
2023-02-13T04:41:50.473Z,99.99
2023-02-13T04:42:50.448Z,99.99
2023-02-13T04:43:50.429Z,99.99
2023-02-13T04:44:50.423Z,99.99
2023-02-13T04:45:50.567Z,99.99
2023-02-13T04:46:50.397Z,99.99
2023-02-13T04:47:50.391Z,99.99
2023-02-13T04:48:50.395Z,99.99
2023-02-13T04:49:50.361Z,99.99
2023-02-13T04:50:50.369Z,99.99
2023-02-13T04:51:50.346Z,99.99
2023-02-13T04:52:50.326Z,99.99
2023-02-13T04:53:50.344Z,99.99
2023-02-13T04:54:50.313Z,99.99
2023-02-13T04:55:50.344Z,99.99
2023-02-13T04:56:50.314Z,99.99
2023-02-13T04:57:50.291Z,99.99
2023-02-13T04:58:50.278Z,99.99
2023-02-13T04:59:50.260Z,99.99
2023-02-13T05:00:50.237Z,99.99
2023-02-13T05:01:50.231Z,99.99
2023-02-13T05:02:50.243Z,99.99
2023-02-13T05:03:50.204Z,99.99
2023-02-13T05:04:50.288Z,99.99
2023-02-13T05:05:50.284Z,99.99
2023-02-13T05:06:50.188Z,99.99
2023-02-13T05:07:50.158Z,99.99
2023-02-13T05:08:50.165Z,99.80
2023-02-13T05:09:50.137Z,99.60
2023-02-13T05:10:50.129Z,99.99
2023-02-13T05:11:50.136Z,99.99
2023-02-13T05:12:50.100Z,99.91
2023-02-13T05:13:50.119Z,99.43
2023-02-13T05:14:50.092Z,99.39
2023-02-13T05:15:50.088Z,99.54
2023-02-13T05:16:50.069Z,99.85
2023-02-13T05:17:50.074Z,99.95
2023-02-13T05:18:50.040Z,99.49
2023-02-13T05:19:50.030Z,99.64
2023-02-13T05:20:50.009Z,99.95
2023-02-13T05:21:50.011Z,99.64
2023-02-13T05:22:50.023Z,99.43
2023-02-13T05:23:49.978Z,99.33
2023-02-13T05:24:49.972Z,99.54
2023-02-13T05:25:49.979Z,99.23
2023-02-13T05:26:49.950Z,99.13
2023-02-13T05:27:49.958Z,99.33
2023-02-13T05:28:49.921Z,99.33
2023-02-13T05:29:49.945Z,99.33
2023-02-13T05:30:50.049Z,99.33
2023-02-13T05:31:50.061Z,99.54
2023-02-13T05:32:49.899Z,99.23
2023-02-13T05:33:49.896Z,99.13
2023-02-13T05:34:49.857Z,99.17
2023-02-13T05:35:49.846Z,99.17
2023-02-13T05:36:49.839Z,99.13
2023-02-13T05:37:49.824Z,99.27
2023-02-13T05:38:49.829Z,99.02
2023-02-13T05:39:49.801Z,99.02
2023-02-13T05:40:49.796Z,99.02
2023-02-13T05:41:49.785Z,99.17
2023-02-13T05:42:49.775Z,99.13
2023-02-13T05:43:49.780Z,99.17
2023-02-13T05:44:49.805Z,99.23
2023-02-13T05:45:49.760Z,99.38
2023-02-13T05:46:49.733Z,99.38
2023-02-13T05:47:49.723Z,99.17
2023-02-13T05:48:49.725Z,99.07
2023-02-13T05:49:49.720Z,99.58
2023-02-13T05:50:49.687Z,99.27
2023-02-13T05:51:49.677Z,99.48
2023-02-13T05:52:49.662Z,99.58
2023-02-13T05:53:49.665Z,99.38
2023-02-13T05:54:49.650Z,99.17
2023-02-13T05:55:49.632Z,99.27
2023-02-13T05:56:49.636Z,99.27
2023-02-13T05:57:49.599Z,99.17
2023-02-13T05:58:49.605Z,99.58
2023-02-13T05:59:49.581Z,99.38
2023-02-13T06:00:49.569Z,99.94
2023-02-13T06:01:49.681Z,99.99
2023-02-13T06:02:49.601Z,99.99
2023-02-13T06:03:49.601Z,99.99
2023-02-13T06:04:49.522Z,99.94
2023-02-13T06:05:49.509Z,99.73
2023-02-13T06:06:49.504Z,99.94
2023-02-13T06:07:49.507Z,99.79
2023-02-13T06:08:49.502Z,99.58
2023-02-13T06:09:49.462Z,99.73
2023-02-13T06:10:49.460Z,99.73
2023-02-13T06:11:49.444Z,99.58
2023-02-13T06:12:49.440Z,99.99
2023-02-13T06:13:49.419Z,99.73
2023-02-13T06:14:49.423Z,99.99
2023-02-13T06:15:49.400Z,99.94
2023-02-13T06:16:49.419Z,99.52
2023-02-13T06:17:49.394Z,99.58
2023-02-13T06:18:49.380Z,99.58
2023-02-13T06:19:49.350Z,99.43
2023-02-13T06:20:49.341Z,99.79
2023-02-13T06:21:49.355Z,99.63
2023-02-13T06:22:49.315Z,99.52
2023-02-13T06:23:49.327Z,99.99
2023-02-13T06:24:49.314Z,99.94
2023-02-13T06:25:49.286Z,99.94
2023-02-13T06:26:49.276Z,99.58
2023-02-13T06:27:49.261Z,99.94
2023-02-13T06:28:49.256Z,99.63
2023-02-13T06:29:49.256Z,99.63
2023-02-13T06:30:49.332Z,99.84
2023-02-13T06:31:49.289Z,99.58
2023-02-13T06:32:49.226Z,99.73
2023-02-13T06:33:49.242Z,99.99
2023-02-13T06:34:49.189Z,99.99
2023-02-13T06:35:49.179Z,99.84
2023-02-13T06:36:49.186Z,99.38
2023-02-13T06:37:49.151Z,99.22
2023-02-13T06:38:49.260Z,99.07
2023-02-13T06:39:49.168Z,99.32
2023-02-13T06:40:49.134Z,99.01
2023-02-13T06:41:49.127Z,99.43
2023-02-13T06:42:49.148Z,99.69
2023-02-13T06:43:49.083Z,99.52
2023-02-13T06:44:49.078Z,99.32
2023-02-13T06:45:49.075Z,99.07
2023-02-13T06:46:49.139Z,99.32
2023-02-13T06:47:49.055Z,99.32
2023-02-13T06:48:49.029Z,99.22
2023-02-13T06:49:49.040Z,99.07
2023-02-13T06:50:49.039Z,99.32
2023-02-13T06:51:48.996Z,99.32
2023-02-13T06:52:49.004Z,99.17
2023-02-13T06:53:48.976Z,99.27
2023-02-13T06:54:48.959Z,99.38
2023-02-13T06:55:48.956Z,99.52
2023-02-13T06:56:48.996Z,99.27
2023-02-13T06:57:48.925Z,99.58
2023-02-13T06:58:48.938Z,99.48
2023-02-13T06:59:48.913Z,99.69
2023-02-13T07:00:48.927Z,99.48
2023-02-13T07:01:48.886Z,99.27
2023-02-13T07:02:48.959Z,99.69
2023-02-13T07:03:48.870Z,99.48
2023-02-13T07:04:48.873Z,99.69
2023-02-13T07:05:48.889Z,99.48
2023-02-13T07:06:48.831Z,99.38
2023-02-13T07:07:48.840Z,99.48
2023-02-13T07:08:48.808Z,99.38
2023-02-13T07:09:48.828Z,99.69
2023-02-13T07:10:48.814Z,99.48
2023-02-13T07:11:48.786Z,99.69
2023-02-13T07:13:03.704Z,99.48
2023-02-13T07:13:49.794Z,99.48
2023-02-13T07:14:48.742Z,99.27
2023-02-13T07:15:48.780Z,99.27
2023-02-13T07:16:48.757Z,99.27
2023-02-13T07:17:48.723Z,99.23
2023-02-13T07:18:48.722Z,99.27
2023-02-13T07:19:48.713Z,99.27
2023-02-13T07:20:48.676Z,99.38
2023-02-13T07:21:48.683Z,99.38
2023-02-13T07:22:48.652Z,99.38
2023-02-13T07:23:48.658Z,99.38
2023-02-13T07:24:48.630Z,99.58
2023-02-13T07:25:48.616Z,99.48
2023-02-13T07:26:48.614Z,99.17
2023-02-13T07:27:48.595Z,99.23
2023-02-13T07:28:49.176Z,99.13
2023-02-13T07:29:48.575Z,99.27
2023-02-13T07:30:48.599Z,99.23
2023-02-13T07:31:48.576Z,99.13
2023-02-13T07:32:48.546Z,99.23
2023-02-13T07:33:48.554Z,99.13
2023-02-13T07:35:00.803Z,99.23
2023-02-13T07:35:49.531Z,99.13
2023-02-13T07:36:48.531Z,99.27
2023-02-13T07:37:48.517Z,99.33
2023-02-13T07:38:48.488Z,99.33
2023-02-13T07:39:48.464Z,99.02
2023-02-13T07:40:48.485Z,99.23
2023-02-13T07:41:48.480Z,99.54
2023-02-13T07:42:48.431Z,99.23
2023-02-13T07:43:48.423Z,99.64
2023-02-13T07:44:48.424Z,99.64
2023-02-13T07:45:48.399Z,99.33
2023-02-13T07:46:48.463Z,99.43
2023-02-13T07:47:48.418Z,99.13
2023-02-13T07:48:48.411Z,99.13
2023-02-13T07:49:48.383Z,99.02
2023-02-13T07:50:48.346Z,99.13
2023-02-13T07:51:48.362Z,98.92
2023-02-13T07:52:48.357Z,99.13
2023-02-13T07:53:48.342Z,99.02
2023-02-13T07:54:48.359Z,99.02
2023-02-13T07:55:48.300Z,98.92
2023-02-13T07:56:48.305Z,98.82
2023-02-13T07:57:48.338Z,98.97
2023-02-13T07:58:48.259Z,98.50
2023-02-13T07:59:48.245Z,98.92
2023-02-13T08:00:48.237Z,98.87
2023-02-13T08:01:48.352Z,99.02
2023-02-13T08:02:48.248Z,98.77
2023-02-13T08:03:48.235Z,98.87
2023-02-13T08:04:48.200Z,98.66
2023-02-13T08:05:48.180Z,98.66
2023-02-13T08:06:48.188Z,99.02
2023-02-13T08:07:48.161Z,99.08
2023-02-13T08:08:48.149Z,99.13
2023-02-13T08:09:48.181Z,99.13
2023-02-13T08:10:48.131Z,98.87
2023-02-13T08:11:48.124Z,98.87
2023-02-13T08:12:48.112Z,98.77
2023-02-13T08:13:48.144Z,98.87
2023-02-13T08:14:48.071Z,98.97
2023-02-13T08:15:48.089Z,98.77
2023-02-13T08:16:48.090Z,98.77
2023-02-13T08:17:48.040Z,98.77
2023-02-13T08:18:48.026Z,98.66
2023-02-13T08:19:48.042Z,99.08
2023-02-13T08:20:48.025Z,99.18
2023-02-13T08:21:48.019Z,98.87
2023-02-13T08:22:47.979Z,98.87
2023-02-13T08:23:48.047Z,98.97
2023-02-13T08:24:47.963Z,99.08
2023-02-13T08:25:48.000Z,99.18
2023-02-13T08:26:47.932Z,98.97
2023-02-13T08:27:47.921Z,98.97
2023-02-13T08:28:47.930Z,99.14
2023-02-13T08:29:47.947Z,98.83
2023-02-13T08:30:47.927Z,98.83
2023-02-13T08:31:47.996Z,98.62
2023-02-13T08:32:54.249Z,99.14
2023-02-13T08:33:48.882Z,99.14
2023-02-13T08:34:47.895Z,98.41
2023-02-13T08:35:47.868Z,98.31
2023-02-13T08:36:47.827Z,99.24
2023-02-13T08:37:47.836Z,98.31
2023-02-13T08:38:47.810Z,98.52
2023-02-13T08:39:47.790Z,98.37
2023-02-13T08:40:47.781Z,97.69
2023-02-13T08:41:47.803Z,98.00
2023-02-13T08:42:47.774Z,98.00
2023-02-13T08:43:47.738Z,97.89
2023-02-13T08:44:47.736Z,98.10
2023-02-13T08:45:47.792Z,97.79
2023-02-13T08:46:47.757Z,98.10
2023-02-13T08:47:47.698Z,97.89
2023-02-13T08:48:47.694Z,97.85
2023-02-13T08:49:47.676Z,97.85
2023-02-13T08:50:47.682Z,98.37
2023-02-13T08:51:47.658Z,98.10
2023-02-13T08:52:47.637Z,97.85
2023-02-13T08:53:47.642Z,97.44
2023-02-13T08:54:47.624Z,97.44
2023-02-13T08:55:47.628Z,97.49
2023-02-13T08:56:47.621Z,97.54
2023-02-13T08:57:47.609Z,97.64
2023-02-13T08:58:47.572Z,97.54
2023-02-13T08:59:47.558Z,97.64
2023-02-13T09:00:47.549Z,96.92
2023-02-13T09:01:47.553Z,97.02
2023-02-13T09:02:47.575Z,97.02
2023-02-13T09:03:47.510Z,96.92
2023-02-13T09:04:47.585Z,97.02
2023-02-13T09:05:47.513Z,97.02
2023-02-13T09:06:47.510Z,97.08
2023-02-13T09:07:47.488Z,97.29
2023-02-13T09:08:47.537Z,96.98
2023-02-13T09:09:47.448Z,96.98
2023-02-13T09:10:47.491Z,97.02
2023-02-13T09:11:47.422Z,96.98
2023-02-13T09:12:47.418Z,97.71
2023-02-13T09:13:47.446Z,97.39
2023-02-13T09:14:47.412Z,97.08
2023-02-13T09:15:47.386Z,96.67
2023-02-13T09:16:47.466Z,96.88
2023-02-13T09:17:47.377Z,96.98
2023-02-13T09:18:47.396Z,97.29
2023-02-13T09:19:47.342Z,96.56
2023-02-13T09:20:47.324Z,96.36
2023-02-13T09:21:47.311Z,96.98
2023-02-13T09:22:47.302Z,96.62
2023-02-13T09:23:47.473Z,96.83
2023-02-13T09:24:47.282Z,97.04
2023-02-13T09:25:47.277Z,96.98
2023-02-13T09:26:47.269Z,97.04
2023-02-13T09:27:47.242Z,96.83
2023-02-13T09:28:47.388Z,96.62
2023-02-13T09:29:47.307Z,96.83
2023-02-13T09:30:47.296Z,96.94
2023-02-13T09:31:47.391Z,96.73
2023-02-13T09:32:47.194Z,96.62
2023-02-13T09:33:47.182Z,96.94
2023-02-13T09:34:47.197Z,96.79
2023-02-13T09:35:47.158Z,96.17
2023-02-13T09:36:47.148Z,95.96
2023-02-13T09:37:47.144Z,96.42
2023-02-13T09:38:47.126Z,96.69
2023-02-13T09:39:47.115Z,96.58
2023-02-13T09:40:47.127Z,96.37
2023-02-13T09:41:47.094Z,96.69
2023-02-13T09:42:47.084Z,96.58
2023-02-13T09:43:47.097Z,96.48
2023-02-13T09:44:47.059Z,96.27
2023-02-13T09:45:47.105Z,96.48
2023-02-13T09:46:47.202Z,96.37
2023-02-13T09:47:47.029Z,96.27
2023-02-13T09:48:47.028Z,96.17
2023-02-13T09:49:47.005Z,96.48
2023-02-13T09:50:47.059Z,96.37
2023-02-13T09:51:46.997Z,96.37
2023-02-13T09:52:46.978Z,95.34
2023-02-13T09:53:46.968Z,95.03
2023-02-13T09:54:46.950Z,95.34
2023-02-13T09:55:47.048Z,95.14
2023-02-13T09:56:46.937Z,95.45
2023-02-13T09:57:46.913Z,95.65
2023-02-13T09:58:46.900Z,94.82
2023-02-13T09:59:46.892Z,95.24
2023-02-13T10:00:46.943Z,95.03
2023-02-13T10:01:47.006Z,94.99
2023-02-13T10:02:46.860Z,95.34
2023-02-13T10:03:46.854Z,95.09
2023-02-13T10:04:46.906Z,95.14
2023-02-13T10:05:46.822Z,95.30
2023-02-13T10:06:46.937Z,95.30
2023-02-13T10:07:46.795Z,94.99
2023-02-13T10:08:46.787Z,95.09
2023-02-13T10:09:46.779Z,95.20
2023-02-13T10:10:46.764Z,95.50
2023-02-13T10:11:46.782Z,95.09
2023-02-13T10:12:46.740Z,95.03
2023-02-13T10:13:46.741Z,94.72
2023-02-13T10:14:46.716Z,94.82
2023-02-13T10:15:46.759Z,94.68
2023-02-13T10:16:46.715Z,94.99
2023-02-13T10:17:46.708Z,95.09
2023-02-13T10:18:46.673Z,94.68
2023-02-13T10:19:46.661Z,94.68
2023-02-13T10:20:46.667Z,94.89
2023-02-13T10:21:46.646Z,94.89
2023-02-13T10:22:46.626Z,94.68
2023-02-13T10:23:46.634Z,94.78
2023-02-13T10:24:46.607Z,94.47
2023-02-13T10:25:46.615Z,94.12
2023-02-13T10:26:46.588Z,93.96
2023-02-13T10:27:46.580Z,94.17
2023-02-13T10:28:46.693Z,94.27
2023-02-13T10:29:46.550Z,94.27
2023-02-13T10:30:46.678Z,94.32
2023-02-13T10:31:46.593Z,94.37
2023-02-13T10:32:46.545Z,94.12
2023-02-13T10:33:46.533Z,94.43
2023-02-13T10:34:46.499Z,94.32
2023-02-13T10:35:46.484Z,94.32
2023-02-13T10:36:46.500Z,94.12
2023-02-13T10:37:46.458Z,93.15
2023-02-13T10:38:46.451Z,93.30
2023-02-13T10:39:46.451Z,93.77
2023-02-13T10:40:46.426Z,93.56
2023-02-13T10:41:46.437Z,93.25
2023-02-13T10:42:46.407Z,93.87
2023-02-13T10:43:46.393Z,93.40
2023-02-13T10:44:46.387Z,93.30
2023-02-13T10:45:46.390Z,92.99
2023-02-13T10:46:46.517Z,92.57
2023-02-13T10:47:46.363Z,92.68
2023-02-13T10:48:46.336Z,92.94
2023-02-13T10:49:46.370Z,93.25
2023-02-13T10:50:46.338Z,93.25
2023-02-13T10:51:46.317Z,92.94
2023-02-13T10:52:46.310Z,92.74
2023-02-13T10:53:46.284Z,92.69
2023-02-13T10:54:46.263Z,93.31
2023-02-13T10:55:46.273Z,93.41
2023-02-13T10:56:46.259Z,92.18
2023-02-13T10:57:46.233Z,92.59
2023-02-13T10:58:46.219Z,91.36
2023-02-13T10:59:46.271Z,91.36
2023-02-13T11:00:46.210Z,91.36
2023-02-13T11:01:46.232Z,91.11
2023-02-13T11:02:46.167Z,90.75
2023-02-13T11:03:46.158Z,90.96
2023-02-13T11:04:46.279Z,90.14
2023-02-13T11:05:46.176Z,89.79
2023-02-13T11:06:46.138Z,90.41
2023-02-13T11:07:46.128Z,90.41
2023-02-13T11:08:46.125Z,90.09
2023-02-13T11:09:46.115Z,88.96
2023-02-13T11:10:46.089Z,89.13
2023-02-13T11:11:46.105Z,88.62
2023-02-13T11:12:46.064Z,89.54
2023-02-13T11:13:46.050Z,89.85
2023-02-13T11:14:46.050Z,89.85
2023-02-13T11:15:46.067Z,89.91
2023-02-13T11:16:46.013Z,88.68
2023-02-13T11:17:46.002Z,87.85
2023-02-13T11:18:46.007Z,87.75
2023-02-13T11:19:45.971Z,87.65
2023-02-13T11:20:45.985Z,87.65
2023-02-13T11:21:45.974Z,86.93
2023-02-13T11:22:45.942Z,87.55
2023-02-13T11:23:46.037Z,87.55
2023-02-13T11:24:45.943Z,87.65
2023-02-13T11:25:45.927Z,86.56
2023-02-13T11:26:45.892Z,86.66
2023-02-13T11:27:45.908Z,86.83
2023-02-13T11:28:45.941Z,86.77
2023-02-13T11:29:45.885Z,86.42
2023-02-13T11:30:45.856Z,86.66
2023-02-13T11:31:46.005Z,86.35
2023-02-13T11:32:45.850Z,86.46
2023-02-13T11:33:45.840Z,86.66
2023-02-13T11:34:45.821Z,87.18
2023-02-13T11:35:45.813Z,86.66
2023-02-13T11:36:45.800Z,86.66
2023-02-13T11:37:45.796Z,86.87
2023-02-13T11:38:45.777Z,86.77
2023-02-13T11:39:45.752Z,86.42
2023-02-13T11:40:45.760Z,86.32
2023-02-13T11:41:45.762Z,85.53
2023-02-13T11:42:45.712Z,85.43
2023-02-13T11:43:45.709Z,85.63
2023-02-13T11:44:45.716Z,85.22
2023-02-13T11:45:45.685Z,86.42
2023-02-13T11:46:45.788Z,86.72
2023-02-13T11:47:45.670Z,85.80
2023-02-13T11:48:45.648Z,86.68
2023-02-13T11:49:45.653Z,86.42
2023-02-13T11:50:45.651Z,85.66
2023-02-13T11:51:45.644Z,85.49
2023-02-13T11:52:45.627Z,85.28
2023-02-13T11:53:45.660Z,85.28
2023-02-13T11:54:45.602Z,85.90
2023-02-13T11:55:45.587Z,85.60
2023-02-13T11:57:03.143Z,85.60
2023-02-13T11:57:46.557Z,86.42
2023-02-13T11:58:45.608Z,86.58
2023-02-13T11:59:45.529Z,86.27
2023-02-13T12:00:45.513Z,85.86
2023-02-13T12:01:45.524Z,85.25
2023-02-13T12:02:45.668Z,85.93
2023-02-13T12:03:45.570Z,85.35
2023-02-13T12:04:45.478Z,85.14
2023-02-13T12:05:45.470Z,84.84
2023-02-13T12:06:45.472Z,84.94
2023-02-13T12:07:45.439Z,85.14
2023-02-13T12:08:45.448Z,85.66
2023-02-13T12:09:45.453Z,85.72
2023-02-13T12:10:45.408Z,85.62
2023-02-13T12:11:45.418Z,85.72
2023-02-13T12:12:45.393Z,86.40
2023-02-13T12:13:45.378Z,86.19
2023-02-13T12:14:45.361Z,86.52
2023-02-13T12:15:45.347Z,85.50
2023-02-13T12:16:45.428Z,84.53
2023-02-13T12:17:45.338Z,84.84
2023-02-13T12:18:45.324Z,82.96
2023-02-13T12:19:45.308Z,82.49
2023-02-13T12:20:45.333Z,82.49
2023-02-13T12:21:45.327Z,82.59
2023-02-13T12:22:45.281Z,83.25
2023-02-13T12:23:45.288Z,83.00
2023-02-13T12:24:45.249Z,82.59
2023-02-13T12:25:45.262Z,82.90
2023-02-13T12:26:45.224Z,83.00
2023-02-13T12:27:45.216Z,82.35
2023-02-13T12:28:45.229Z,82.32
2023-02-13T12:29:45.203Z,83.00
2023-02-13T12:30:45.270Z,83.41
2023-02-13T12:31:45.254Z,83.31
2023-02-13T12:32:45.154Z,82.93
2023-02-13T12:33:45.163Z,82.53
2023-02-13T12:34:45.133Z,83.00
2023-02-13T12:35:45.122Z,83.68
2023-02-13T12:36:45.118Z,84.09
2023-02-13T12:37:45.130Z,82.65
2023-02-13T12:38:45.086Z,81.57
2023-02-13T12:39:45.073Z,81.46
2023-02-13T12:40:45.064Z,82.53
2023-02-13T12:41:45.072Z,82.26
2023-02-13T12:42:45.065Z,82.67
2023-02-13T12:43:45.030Z,82.46
2023-02-13T12:44:45.016Z,83.90
2023-02-13T12:45:45.090Z,83.63
2023-02-13T12:46:44.995Z,84.10
2023-02-13T12:47:44.989Z,83.94
2023-02-13T12:48:44.993Z,84.25
2023-02-13T12:49:44.963Z,83.42
2023-02-13T12:50:44.957Z,84.55
2023-02-13T12:51:44.942Z,84.41
2023-02-13T12:52:44.933Z,84.31